sensor_id;sensor_type;location;lat;lon;timestamp;P1;durP1;ratioP1;P2;durP2;ratioP2
21087;SDS011;10702;51.516;9.944;2023-04-03T00:00:43;3.17;;;1.20;;
21087;SDS011;10702;51.516;9.944;2023-04-03T00:03:11;5.43;;;1.53;;
21087;SDS011;10702;51.516;9.944;2023-04-03T00:05:38;3.47;;;1.20;;
21087;SDS011;10702;51.516;9.944;2023-04-03T00:08:06;2.20;;;0.93;;
21087;SDS011;10702;51.516;9.944;2023-04-03T00:10:35;4.03;;;0.93;;
21087;SDS011;10702;51.516;9.944;2023-04-03T00:13:03;2.87;;;1.30;;
21087;SDS011;10702;51.516;9.944;2023-04-03T00:15:32;5.50;;;1.27;;
21087;SDS011;10702;51.516;9.944;2023-04-03T00:18:00;4.40;;;1.50;;
21087;SDS011;10702;51.516;9.944;2023-04-03T00:20:28;4.87;;;1.27;;
21087;SDS011;10702;51.516;9.944;2023-04-03T00:22:55;5.87;;;1.10;;
21087;SDS011;10702;51.516;9.944;2023-04-03T00:25:23;4.67;;;1.00;;
21087;SDS011;10702;51.516;9.944;2023-04-03T00:27:50;4.40;;;1.20;;
21087;SDS011;10702;51.516;9.944;2023-04-03T00:30:18;8.17;;;1.20;;
21087;SDS011;10702;51.516;9.944;2023-04-03T00:32:48;3.43;;;1.30;;
21087;SDS011;10702;51.516;9.944;2023-04-03T00:35:16;4.50;;;1.13;;
21087;SDS011;10702;51.516;9.944;2023-04-03T00:37:44;4.03;;;1.20;;
21087;SDS011;10702;51.516;9.944;2023-04-03T00:40:12;4.73;;;1.10;;
21087;SDS011;10702;51.516;9.944;2023-04-03T00:42:40;2.20;;;0.83;;
21087;SDS011;10702;51.516;9.944;2023-04-03T00:45:22;3.73;;;0.90;;
21087;SDS011;10702;51.516;9.944;2023-04-03T00:47:51;4.10;;;1.20;;
21087;SDS011;10702;51.516;9.944;2023-04-03T00:50:19;3.80;;;1.13;;
21087;SDS011;10702;51.516;9.944;2023-04-03T00:52:47;2.93;;;1.07;;
21087;SDS011;10702;51.516;9.944;2023-04-03T00:55:15;6.67;;;1.40;;
21087;SDS011;10702;51.516;9.944;2023-04-03T00:57:43;4.23;;;1.53;;
21087;SDS011;10702;51.516;9.944;2023-04-03T01:00:12;3.40;;;1.10;;
21087;SDS011;10702;51.516;9.944;2023-04-03T01:02:40;4.03;;;1.10;;
21087;SDS011;10702;51.516;9.944;2023-04-03T01:05:09;3.07;;;1.10;;
21087;SDS011;10702;51.516;9.944;2023-04-03T01:07:37;6.47;;;1.20;;
21087;SDS011;10702;51.516;9.944;2023-04-03T01:10:05;7.80;;;1.20;;
21087;SDS011;10702;51.516;9.944;2023-04-03T01:12:33;3.27;;;1.07;;
21087;SDS011;10702;51.516;9.944;2023-04-03T01:15:03;3.10;;;1.23;;
21087;SDS011;10702;51.516;9.944;2023-04-03T01:17:31;3.53;;;1.17;;
21087;SDS011;10702;51.516;9.944;2023-04-03T01:20:12;5.63;;;1.20;;
21087;SDS011;10702;51.516;9.944;2023-04-03T01:22:43;5.67;;;1.27;;
21087;SDS011;10702;51.516;9.944;2023-04-03T01:25:11;2.23;;;1.20;;
21087;SDS011;10702;51.516;9.944;2023-04-03T01:27:39;7.50;;;1.30;;
21087;SDS011;10702;51.516;9.944;2023-04-03T01:30:07;2.73;;;1.23;;
21087;SDS011;10702;51.516;9.944;2023-04-03T01:32:36;4.83;;;1.20;;
21087;SDS011;10702;51.516;9.944;2023-04-03T01:35:03;4.00;;;1.50;;
21087;SDS011;10702;51.516;9.944;2023-04-03T01:37:31;5.13;;;1.30;;
21087;SDS011;10702;51.516;9.944;2023-04-03T01:39:58;3.50;;;1.30;;
21087;SDS011;10702;51.516;9.944;2023-04-03T01:42:26;6.07;;;1.50;;
21087;SDS011;10702;51.516;9.944;2023-04-03T01:44:53;4.53;;;1.30;;
21087;SDS011;10702;51.516;9.944;2023-04-03T01:47:21;4.17;;;1.17;;
21087;SDS011;10702;51.516;9.944;2023-04-03T01:49:49;2.67;;;1.30;;
21087;SDS011;10702;51.516;9.944;2023-04-03T01:52:17;3.83;;;1.37;;
21087;SDS011;10702;51.516;9.944;2023-04-03T01:54:44;3.53;;;1.30;;
21087;SDS011;10702;51.516;9.944;2023-04-03T01:57:12;6.00;;;1.40;;
21087;SDS011;10702;51.516;9.944;2023-04-03T01:59:41;5.27;;;1.10;;
21087;SDS011;10702;51.516;9.944;2023-04-03T02:02:08;3.40;;;1.13;;
21087;SDS011;10702;51.516;9.944;2023-04-03T02:04:38;2.57;;;1.30;;
21087;SDS011;10702;51.516;9.944;2023-04-03T02:07:07;2.33;;;1.00;;
21087;SDS011;10702;51.516;9.944;2023-04-03T02:09:34;4.77;;;1.40;;
21087;SDS011;10702;51.516;9.944;2023-04-03T02:12:02;2.77;;;1.10;;
21087;SDS011;10702;51.516;9.944;2023-04-03T02:14:29;4.50;;;1.87;;
21087;SDS011;10702;51.516;9.944;2023-04-03T02:16:57;5.57;;;1.37;;
21087;SDS011;10702;51.516;9.944;2023-04-03T02:19:24;4.80;;;1.30;;
21087;SDS011;10702;51.516;9.944;2023-04-03T02:21:51;2.93;;;1.00;;
21087;SDS011;10702;51.516;9.944;2023-04-03T02:24:20;2.50;;;1.20;;
21087;SDS011;10702;51.516;9.944;2023-04-03T02:26:47;4.37;;;1.20;;
21087;SDS011;10702;51.516;9.944;2023-04-03T02:29:15;2.97;;;1.17;;
21087;SDS011;10702;51.516;9.944;2023-04-03T02:31:42;2.70;;;1.07;;
21087;SDS011;10702;51.516;9.944;2023-04-03T02:34:10;4.63;;;1.23;;
21087;SDS011;10702;51.516;9.944;2023-04-03T02:36:37;5.13;;;1.27;;
21087;SDS011;10702;51.516;9.944;2023-04-03T02:39:05;4.53;;;1.33;;
21087;SDS011;10702;51.516;9.944;2023-04-03T02:41:33;5.20;;;1.53;;
21087;SDS011;10702;51.516;9.944;2023-04-03T02:44:02;2.83;;;1.20;;
21087;SDS011;10702;51.516;9.944;2023-04-03T02:46:29;4.27;;;1.40;;
21087;SDS011;10702;51.516;9.944;2023-04-03T02:48:57;3.33;;;1.33;;
21087;SDS011;10702;51.516;9.944;2023-04-03T02:51:24;3.53;;;1.70;;
21087;SDS011;10702;51.516;9.944;2023-04-03T02:53:51;4.63;;;1.67;;
21087;SDS011;10702;51.516;9.944;2023-04-03T02:56:19;4.17;;;1.67;;
21087;SDS011;10702;51.516;9.944;2023-04-03T02:58:48;4.17;;;1.37;;
21087;SDS011;10702;51.516;9.944;2023-04-03T03:01:16;3.17;;;1.30;;
21087;SDS011;10702;51.516;9.944;2023-04-03T03:03:43;5.33;;;1.47;;
21087;SDS011;10702;51.516;9.944;2023-04-03T03:06:11;4.53;;;1.60;;
21087;SDS011;10702;51.516;9.944;2023-04-03T03:08:39;3.17;;;1.40;;
21087;SDS011;10702;51.516;9.944;2023-04-03T03:11:07;3.53;;;1.30;;
21087;SDS011;10702;51.516;9.944;2023-04-03T03:13:35;4.10;;;1.40;;
21087;SDS011;10702;51.516;9.944;2023-04-03T03:16:04;3.33;;;1.30;;
21087;SDS011;10702;51.516;9.944;2023-04-03T03:18:32;4.27;;;1.53;;
21087;SDS011;10702;51.516;9.944;2023-04-03T03:21:00;4.43;;;1.20;;
21087;SDS011;10702;51.516;9.944;2023-04-03T03:23:28;2.80;;;0.93;;
21087;SDS011;10702;51.516;9.944;2023-04-03T03:25:56;4.03;;;1.30;;
21087;SDS011;10702;51.516;9.944;2023-04-03T03:28:24;4.43;;;1.30;;
21087;SDS011;10702;51.516;9.944;2023-04-03T03:30:51;3.73;;;1.40;;
21087;SDS011;10702;51.516;9.944;2023-04-03T03:33:20;2.97;;;1.20;;
21087;SDS011;10702;51.516;9.944;2023-04-03T03:35:47;3.23;;;1.40;;
21087;SDS011;10702;51.516;9.944;2023-04-03T03:38:15;3.37;;;1.20;;
21087;SDS011;10702;51.516;9.944;2023-04-03T03:40:42;5.00;;;1.27;;
21087;SDS011;10702;51.516;9.944;2023-04-03T03:43:10;6.20;;;1.60;;
21087;SDS011;10702;51.516;9.944;2023-04-03T03:45:37;2.90;;;1.20;;
21087;SDS011;10702;51.516;9.944;2023-04-03T03:48:05;2.27;;;1.20;;
21087;SDS011;10702;51.516;9.944;2023-04-03T03:50:34;2.43;;;1.30;;
21087;SDS011;10702;51.516;9.944;2023-04-03T03:53:01;4.37;;;1.40;;
21087;SDS011;10702;51.516;9.944;2023-04-03T03:55:28;5.20;;;1.20;;
21087;SDS011;10702;51.516;9.944;2023-04-03T03:57:56;4.70;;;1.63;;
21087;SDS011;10702;51.516;9.944;2023-04-03T04:00:23;4.53;;;1.47;;
21087;SDS011;10702;51.516;9.944;2023-04-03T04:02:51;2.73;;;1.23;;
21087;SDS011;10702;51.516;9.944;2023-04-03T04:05:18;4.00;;;2.00;;
21087;SDS011;10702;51.516;9.944;2023-04-03T04:07:47;8.90;;;1.63;;
21087;SDS011;10702;51.516;9.944;2023-04-03T04:10:15;5.47;;;1.33;;
21087;SDS011;10702;51.516;9.944;2023-04-03T04:12:42;5.60;;;1.60;;
21087;SDS011;10702;51.516;9.944;2023-04-03T04:15:09;7.33;;;1.67;;
21087;SDS011;10702;51.516;9.944;2023-04-03T04:17:37;3.20;;;1.60;;
21087;SDS011;10702;51.516;9.944;2023-04-03T04:20:05;5.07;;;1.73;;
21087;SDS011;10702;51.516;9.944;2023-04-03T04:22:33;4.90;;;1.80;;
21087;SDS011;10702;51.516;9.944;2023-04-03T04:25:01;3.77;;;1.47;;
21087;SDS011;10702;51.516;9.944;2023-04-03T04:27:29;6.30;;;1.53;;
21087;SDS011;10702;51.516;9.944;2023-04-03T04:29:57;7.20;;;1.80;;
21087;SDS011;10702;51.516;9.944;2023-04-03T04:32:24;4.23;;;1.70;;
21087;SDS011;10702;51.516;9.944;2023-04-03T04:34:52;3.23;;;1.60;;
21087;SDS011;10702;51.516;9.944;2023-04-03T04:37:19;6.13;;;2.00;;
21087;SDS011;10702;51.516;9.944;2023-04-03T04:39:47;5.50;;;1.70;;
21087;SDS011;10702;51.516;9.944;2023-04-03T04:42:15;4.50;;;1.63;;
21087;SDS011;10702;51.516;9.944;2023-04-03T04:44:43;4.37;;;1.60;;
21087;SDS011;10702;51.516;9.944;2023-04-03T04:47:11;4.50;;;2.20;;
21087;SDS011;10702;51.516;9.944;2023-04-03T04:49:38;5.23;;;2.37;;
21087;SDS011;10702;51.516;9.944;2023-04-03T04:52:05;5.10;;;1.70;;
21087;SDS011;10702;51.516;9.944;2023-04-03T04:54:33;4.27;;;1.60;;
21087;SDS011;10702;51.516;9.944;2023-04-03T04:57:00;3.37;;;1.77;;
21087;SDS011;10702;51.516;9.944;2023-04-03T04:59:29;6.33;;;1.83;;
21087;SDS011;10702;51.516;9.944;2023-04-03T05:01:57;8.23;;;1.77;;
21087;SDS011;10702;51.516;9.944;2023-04-03T05:04:24;8.53;;;2.07;;
21087;SDS011;10702;51.516;9.944;2023-04-03T05:06:52;4.03;;;1.67;;
21087;SDS011;10702;51.516;9.944;2023-04-03T05:09:19;6.20;;;1.67;;
21087;SDS011;10702;51.516;9.944;2023-04-03T05:11:47;4.80;;;1.80;;
21087;SDS011;10702;51.516;9.944;2023-04-03T05:14:14;4.73;;;1.60;;
21087;SDS011;10702;51.516;9.944;2023-04-03T05:16:43;5.13;;;1.70;;
21087;SDS011;10702;51.516;9.944;2023-04-03T05:19:10;4.13;;;1.70;;
21087;SDS011;10702;51.516;9.944;2023-04-03T05:21:38;5.67;;;1.60;;
21087;SDS011;10702;51.516;9.944;2023-04-03T05:24:05;4.93;;;1.80;;
21087;SDS011;10702;51.516;9.944;2023-04-03T05:26:35;7.47;;;2.00;;
21087;SDS011;10702;51.516;9.944;2023-04-03T05:29:03;4.80;;;2.00;;
21087;SDS011;10702;51.516;9.944;2023-04-03T05:31:30;4.17;;;2.03;;
21087;SDS011;10702;51.516;9.944;2023-04-03T05:33:59;2.90;;;1.60;;
21087;SDS011;10702;51.516;9.944;2023-04-03T05:36:26;6.27;;;2.07;;
21087;SDS011;10702;51.516;9.944;2023-04-03T05:38:54;6.57;;;2.40;;
21087;SDS011;10702;51.516;9.944;2023-04-03T05:41:23;9.60;;;2.50;;
21087;SDS011;10702;51.516;9.944;2023-04-03T05:43:51;4.57;;;2.60;;
21087;SDS011;10702;51.516;9.944;2023-04-03T05:46:18;6.07;;;2.60;;
21087;SDS011;10702;51.516;9.944;2023-04-03T05:48:46;7.97;;;2.60;;
21087;SDS011;10702;51.516;9.944;2023-04-03T05:51:16;9.97;;;2.70;;
21087;SDS011;10702;51.516;9.944;2023-04-03T05:53:44;7.63;;;2.90;;
21087;SDS011;10702;51.516;9.944;2023-04-03T05:56:12;10.53;;;3.23;;
21087;SDS011;10702;51.516;9.944;2023-04-03T05:58:39;7.97;;;3.23;;
21087;SDS011;10702;51.516;9.944;2023-04-03T06:01:07;9.97;;;2.77;;
21087;SDS011;10702;51.516;9.944;2023-04-03T06:03:35;6.10;;;2.80;;
21087;SDS011;10702;51.516;9.944;2023-04-03T06:06:05;8.33;;;3.07;;
21087;SDS011;10702;51.516;9.944;2023-04-03T06:08:35;6.93;;;2.83;;
21087;SDS011;10702;51.516;9.944;2023-04-03T06:11:02;6.60;;;2.67;;
21087;SDS011;10702;51.516;9.944;2023-04-03T06:13:30;5.77;;;2.63;;
21087;SDS011;10702;51.516;9.944;2023-04-03T06:15:58;5.60;;;2.57;;
21087;SDS011;10702;51.516;9.944;2023-04-03T06:18:25;7.50;;;2.60;;
21087;SDS011;10702;51.516;9.944;2023-04-03T06:20:52;5.33;;;2.03;;
21087;SDS011;10702;51.516;9.944;2023-04-03T06:23:20;7.70;;;2.43;;
21087;SDS011;10702;51.516;9.944;2023-04-03T06:25:49;7.70;;;2.03;;
21087;SDS011;10702;51.516;9.944;2023-04-03T06:28:16;5.57;;;2.00;;
21087;SDS011;10702;51.516;9.944;2023-04-03T06:30:45;5.73;;;2.00;;
21087;SDS011;10702;51.516;9.944;2023-04-03T06:33:12;7.23;;;1.77;;
21087;SDS011;10702;51.516;9.944;2023-04-03T06:35:40;10.13;;;2.23;;
21087;SDS011;10702;51.516;9.944;2023-04-03T06:38:08;4.07;;;1.90;;
21087;SDS011;10702;51.516;9.944;2023-04-03T06:40:36;5.73;;;1.90;;
21087;SDS011;10702;51.516;9.944;2023-04-03T06:43:05;5.70;;;1.70;;
21087;SDS011;10702;51.516;9.944;2023-04-03T06:45:33;2.73;;;1.40;;
21087;SDS011;10702;51.516;9.944;2023-04-03T06:48:01;4.27;;;1.40;;
21087;SDS011;10702;51.516;9.944;2023-04-03T06:50:28;3.80;;;1.30;;
21087;SDS011;10702;51.516;9.944;2023-04-03T06:52:55;4.87;;;1.30;;
21087;SDS011;10702;51.516;9.944;2023-04-03T06:55:23;2.93;;;1.17;;
21087;SDS011;10702;51.516;9.944;2023-04-03T06:57:50;7.70;;;1.60;;
21087;SDS011;10702;51.516;9.944;2023-04-03T07:00:20;8.17;;;1.30;;
21087;SDS011;10702;51.516;9.944;2023-04-03T07:02:47;4.13;;;1.30;;
21087;SDS011;10702;51.516;9.944;2023-04-03T07:05:15;3.93;;;1.50;;
21087;SDS011;10702;51.516;9.944;2023-04-03T07:07:42;4.53;;;1.30;;
21087;SDS011;10702;51.516;9.944;2023-04-03T07:10:10;2.90;;;1.20;;
21087;SDS011;10702;51.516;9.944;2023-04-03T07:12:38;3.43;;;1.20;;
21087;SDS011;10702;51.516;9.944;2023-04-03T07:15:06;3.87;;;1.50;;
21087;SDS011;10702;51.516;9.944;2023-04-03T07:17:35;3.17;;;1.17;;
21087;SDS011;10702;51.516;9.944;2023-04-03T07:20:03;4.23;;;1.10;;
21087;SDS011;10702;51.516;9.944;2023-04-03T07:22:30;4.13;;;1.27;;
21087;SDS011;10702;51.516;9.944;2023-04-03T07:24:58;3.20;;;0.93;;
21087;SDS011;10702;51.516;9.944;2023-04-03T07:27:26;2.70;;;1.20;;
21087;SDS011;10702;51.516;9.944;2023-04-03T07:29:54;2.87;;;1.00;;
21087;SDS011;10702;51.516;9.944;2023-04-03T07:32:22;4.47;;;1.43;;
21087;SDS011;10702;51.516;9.944;2023-04-03T07:34:51;4.67;;;1.20;;
21087;SDS011;10702;51.516;9.944;2023-04-03T07:37:18;5.27;;;1.37;;
21087;SDS011;10702;51.516;9.944;2023-04-03T07:39:46;3.73;;;1.30;;
21087;SDS011;10702;51.516;9.944;2023-04-03T07:42:14;2.60;;;1.13;;
21087;SDS011;10702;51.516;9.944;2023-04-03T07:44:42;3.50;;;1.30;;
21087;SDS011;10702;51.516;9.944;2023-04-03T07:47:10;4.20;;;1.20;;
21087;SDS011;10702;51.516;9.944;2023-04-03T07:49:37;4.30;;;1.13;;
21087;SDS011;10702;51.516;9.944;2023-04-03T07:52:08;2.80;;;0.90;;
21087;SDS011;10702;51.516;9.944;2023-04-03T07:54:36;3.50;;;1.27;;
21087;SDS011;10702;51.516;9.944;2023-04-03T07:57:03;2.30;;;0.93;;
21087;SDS011;10702;51.516;9.944;2023-04-03T07:59:31;5.30;;;1.40;;
21087;SDS011;10702;51.516;9.944;2023-04-03T08:01:59;3.57;;;1.20;;
21087;SDS011;10702;51.516;9.944;2023-04-03T08:04:26;4.83;;;1.70;;
21087;SDS011;10702;51.516;9.944;2023-04-03T08:06:54;4.90;;;1.20;;
21087;SDS011;10702;51.516;9.944;2023-04-03T08:09:22;2.87;;;1.27;;
21087;SDS011;10702;51.516;9.944;2023-04-03T08:11:50;3.33;;;1.20;;
21087;SDS011;10702;51.516;9.944;2023-04-03T08:14:19;3.50;;;1.00;;
21087;SDS011;10702;51.516;9.944;2023-04-03T08:16:47;4.20;;;1.23;;
21087;SDS011;10702;51.516;9.944;2023-04-03T08:19:15;4.73;;;1.20;;
21087;SDS011;10702;51.516;9.944;2023-04-03T08:21:51;4.43;;;1.50;;
21087;SDS011;10702;51.516;9.944;2023-04-03T08:24:19;6.30;;;1.60;;
21087;SDS011;10702;51.516;9.944;2023-04-03T08:26:47;4.43;;;1.30;;
21087;SDS011;10702;51.516;9.944;2023-04-03T08:29:15;3.23;;;1.20;;
21087;SDS011;10702;51.516;9.944;2023-04-03T08:31:42;3.53;;;1.10;;
21087;SDS011;10702;51.516;9.944;2023-04-03T08:34:11;5.00;;;1.30;;
21087;SDS011;10702;51.516;9.944;2023-04-03T08:36:39;3.47;;;1.00;;
21087;SDS011;10702;51.516;9.944;2023-04-03T08:39:07;3.73;;;1.13;;
21087;SDS011;10702;51.516;9.944;2023-04-03T08:41:35;2.60;;;0.90;;
21087;SDS011;10702;51.516;9.944;2023-04-03T08:44:07;3.03;;;1.20;;
21087;SDS011;10702;51.516;9.944;2023-04-03T08:46:42;2.17;;;1.00;;
21087;SDS011;10702;51.516;9.944;2023-04-03T08:49:14;3.33;;;1.10;;
21087;SDS011;10702;51.516;9.944;2023-04-03T08:51:45;1.60;;;0.90;;
21087;SDS011;10702;51.516;9.944;2023-04-03T08:54:15;2.33;;;0.90;;
21087;SDS011;10702;51.516;9.944;2023-04-03T08:56:46;2.00;;;0.93;;
21087;SDS011;10702;51.516;9.944;2023-04-03T08:59:17;3.60;;;1.10;;
21087;SDS011;10702;51.516;9.944;2023-04-03T09:01:48;2.90;;;0.90;;
21087;SDS011;10702;51.516;9.944;2023-04-03T09:04:17;5.20;;;0.93;;
21087;SDS011;10702;51.516;9.944;2023-04-03T09:06:45;5.00;;;1.27;;
21087;SDS011;10702;51.516;9.944;2023-04-03T09:09:21;3.87;;;1.03;;
21087;SDS011;10702;51.516;9.944;2023-04-03T09:11:53;4.53;;;0.90;;
21087;SDS011;10702;51.516;9.944;2023-04-03T09:14:26;2.60;;;0.97;;
21087;SDS011;10702;51.516;9.944;2023-04-03T09:16:58;3.30;;;0.93;;
21087;SDS011;10702;51.516;9.944;2023-04-03T09:19:30;2.20;;;0.83;;
21087;SDS011;10702;51.516;9.944;2023-04-03T09:22:09;2.57;;;0.90;;
21087;SDS011;10702;51.516;9.944;2023-04-03T09:24:39;3.63;;;0.93;;
21087;SDS011;10702;51.516;9.944;2023-04-03T09:27:08;3.50;;;0.80;;
21087;SDS011;10702;51.516;9.944;2023-04-03T09:29:38;4.87;;;1.00;;
21087;SDS011;10702;51.516;9.944;2023-04-03T09:32:12;4.30;;;0.90;;
21087;SDS011;10702;51.516;9.944;2023-04-03T09:34:45;1.37;;;0.60;;
21087;SDS011;10702;51.516;9.944;2023-04-03T09:37:12;4.00;;;0.93;;
21087;SDS011;10702;51.516;9.944;2023-04-03T09:39:59;5.40;;;1.20;;
21087;SDS011;10702;51.516;9.944;2023-04-03T09:42:27;3.73;;;0.80;;
21087;SDS011;10702;51.516;9.944;2023-04-03T09:44:59;2.57;;;0.63;;
21087;SDS011;10702;51.516;9.944;2023-04-03T09:47:28;4.60;;;0.80;;
21087;SDS011;10702;51.516;9.944;2023-04-03T09:50:15;2.37;;;0.80;;
21087;SDS011;10702;51.516;9.944;2023-04-03T09:52:45;3.30;;;0.80;;
21087;SDS011;10702;51.516;9.944;2023-04-03T09:55:13;1.40;;;0.60;;
21087;SDS011;10702;51.516;9.944;2023-04-03T09:57:41;2.03;;;0.80;;
21087;SDS011;10702;51.516;9.944;2023-04-03T10:00:19;1.70;;;0.70;;
21087;SDS011;10702;51.516;9.944;2023-04-03T10:02:49;3.73;;;0.90;;
21087;SDS011;10702;51.516;9.944;2023-04-03T10:05:28;3.87;;;1.07;;
21087;SDS011;10702;51.516;9.944;2023-04-03T10:08:06;2.17;;;0.70;;
21087;SDS011;10702;51.516;9.944;2023-04-03T10:10:35;4.80;;;1.00;;
21087;SDS011;10702;51.516;9.944;2023-04-03T10:13:05;3.67;;;0.90;;
21087;SDS011;10702;51.516;9.944;2023-04-03T10:15:38;3.33;;;1.10;;
21087;SDS011;10702;51.516;9.944;2023-04-03T10:18:10;4.90;;;0.90;;
21087;SDS011;10702;51.516;9.944;2023-04-03T10:20:50;2.70;;;0.90;;
21087;SDS011;10702;51.516;9.944;2023-04-03T10:23:21;4.03;;;0.83;;
21087;SDS011;10702;51.516;9.944;2023-04-03T10:25:54;2.07;;;0.80;;
21087;SDS011;10702;51.516;9.944;2023-04-03T10:28:24;1.90;;;0.70;;
21087;SDS011;10702;51.516;9.944;2023-04-03T10:30:56;2.53;;;0.90;;
21087;SDS011;10702;51.516;9.944;2023-04-03T10:33:30;4.13;;;0.90;;
21087;SDS011;10702;51.516;9.944;2023-04-03T10:36:02;2.13;;;0.60;;
21087;SDS011;10702;51.516;9.944;2023-04-03T10:38:38;3.70;;;0.97;;
21087;SDS011;10702;51.516;9.944;2023-04-03T10:41:08;3.83;;;0.93;;
21087;SDS011;10702;51.516;9.944;2023-04-03T10:43:43;2.23;;;0.80;;
21087;SDS011;10702;51.516;9.944;2023-04-03T10:46:13;2.33;;;0.83;;
21087;SDS011;10702;51.516;9.944;2023-04-03T10:48:45;2.43;;;0.90;;
21087;SDS011;10702;51.516;9.944;2023-04-03T10:51:16;4.13;;;1.30;;
21087;SDS011;10702;51.516;9.944;2023-04-03T10:53:49;4.57;;;0.90;;
21087;SDS011;10702;51.516;9.944;2023-04-03T10:56:19;2.07;;;0.90;;
21087;SDS011;10702;51.516;9.944;2023-04-03T10:58:50;2.67;;;1.03;;
21087;SDS011;10702;51.516;9.944;2023-04-03T11:01:22;2.93;;;0.90;;
21087;SDS011;10702;51.516;9.944;2023-04-03T11:03:52;4.27;;;1.00;;
21087;SDS011;10702;51.516;9.944;2023-04-03T11:06:22;2.40;;;0.90;;
21087;SDS011;10702;51.516;9.944;2023-04-03T11:08:51;4.33;;;1.23;;
21087;SDS011;10702;51.516;9.944;2023-04-03T11:11:24;2.43;;;1.23;;
21087;SDS011;10702;51.516;9.944;2023-04-03T11:13:54;2.73;;;0.83;;
21087;SDS011;10702;51.516;9.944;2023-04-03T11:16:26;2.40;;;0.93;;
21087;SDS011;10702;51.516;9.944;2023-04-03T11:18:56;3.47;;;1.00;;
21087;SDS011;10702;51.516;9.944;2023-04-03T11:21:27;5.33;;;0.80;;
21087;SDS011;10702;51.516;9.944;2023-04-03T11:23:57;2.20;;;0.90;;
21087;SDS011;10702;51.516;9.944;2023-04-03T11:26:26;2.30;;;1.07;;
21087;SDS011;10702;51.516;9.944;2023-04-03T11:28:56;2.00;;;1.07;;
21087;SDS011;10702;51.516;9.944;2023-04-03T11:31:29;2.00;;;0.90;;
21087;SDS011;10702;51.516;9.944;2023-04-03T11:34:05;2.47;;;0.90;;
21087;SDS011;10702;51.516;9.944;2023-04-03T11:36:34;2.10;;;1.00;;
21087;SDS011;10702;51.516;9.944;2023-04-03T11:39:07;2.50;;;1.10;;
21087;SDS011;10702;51.516;9.944;2023-04-03T11:41:37;3.67;;;1.10;;
21087;SDS011;10702;51.516;9.944;2023-04-03T11:44:05;3.27;;;1.00;;
21087;SDS011;10702;51.516;9.944;2023-04-03T11:46:50;3.97;;;1.10;;
21087;SDS011;10702;51.516;9.944;2023-04-03T11:52:09;2.10;;;1.10;;
21087;SDS011;10702;51.516;9.944;2023-04-03T11:54:47;2.10;;;0.97;;
21087;SDS011;10702;51.516;9.944;2023-04-03T12:02:45;2.17;;;1.10;;
21087;SDS011;10702;51.516;9.944;2023-04-03T12:05:27;1.93;;;0.93;;
21087;SDS011;10702;51.516;9.944;2023-04-03T12:13:32;2.43;;;1.00;;
21087;SDS011;10702;51.516;9.944;2023-04-03T12:16:00;3.47;;;0.83;;
21087;SDS011;10702;51.516;9.944;2023-04-03T12:21:19;2.03;;;0.93;;
21087;SDS011;10702;51.516;9.944;2023-04-03T12:23:58;3.73;;;0.97;;
21087;SDS011;10702;51.516;9.944;2023-04-03T12:26:28;4.40;;;1.07;;
21087;SDS011;10702;51.516;9.944;2023-04-03T12:29:14;2.77;;;0.83;;
21087;SDS011;10702;51.516;9.944;2023-04-03T12:31:46;3.13;;;1.10;;
21087;SDS011;10702;51.516;9.944;2023-04-03T12:34:18;4.30;;;1.47;;
21087;SDS011;10702;51.516;9.944;2023-04-03T12:36:55;6.73;;;1.03;;
21087;SDS011;10702;51.516;9.944;2023-04-03T12:39:33;1.70;;;0.87;;
21087;SDS011;10702;51.516;9.944;2023-04-03T12:42:05;3.03;;;1.03;;
21087;SDS011;10702;51.516;9.944;2023-04-03T12:44:42;4.50;;;1.10;;
21087;SDS011;10702;51.516;9.944;2023-04-03T12:47:22;2.17;;;1.00;;
21087;SDS011;10702;51.516;9.944;2023-04-03T12:49:50;4.70;;;1.10;;
21087;SDS011;10702;51.516;9.944;2023-04-03T12:52:22;4.10;;;1.33;;
21087;SDS011;10702;51.516;9.944;2023-04-03T12:54:51;3.70;;;1.00;;
21087;SDS011;10702;51.516;9.944;2023-04-03T12:57:20;3.67;;;1.00;;
21087;SDS011;10702;51.516;9.944;2023-04-03T12:59:48;1.73;;;0.93;;
21087;SDS011;10702;51.516;9.944;2023-04-03T13:02:19;3.20;;;1.03;;
21087;SDS011;10702;51.516;9.944;2023-04-03T13:04:46;4.53;;;1.30;;
21087;SDS011;10702;51.516;9.944;2023-04-03T13:07:18;3.07;;;0.90;;
21087;SDS011;10702;51.516;9.944;2023-04-03T13:09:56;3.20;;;1.00;;
21087;SDS011;10702;51.516;9.944;2023-04-03T13:12:23;2.60;;;1.07;;
21087;SDS011;10702;51.516;9.944;2023-04-03T13:14:52;2.70;;;1.00;;
21087;SDS011;10702;51.516;9.944;2023-04-03T13:17:20;2.70;;;1.13;;
21087;SDS011;10702;51.516;9.944;2023-04-03T13:19:48;3.17;;;1.00;;
21087;SDS011;10702;51.516;9.944;2023-04-03T13:22:23;4.03;;;1.27;;
21087;SDS011;10702;51.516;9.944;2023-04-03T13:24:53;4.40;;;0.93;;
21087;SDS011;10702;51.516;9.944;2023-04-03T13:27:22;4.90;;;1.10;;
21087;SDS011;10702;51.516;9.944;2023-04-03T13:29:50;3.57;;;1.13;;
21087;SDS011;10702;51.516;9.944;2023-04-03T13:32:20;2.30;;;1.00;;
21087;SDS011;10702;51.516;9.944;2023-04-03T13:34:49;3.43;;;1.10;;
21087;SDS011;10702;51.516;9.944;2023-04-03T13:37:20;6.10;;;1.30;;
21087;SDS011;10702;51.516;9.944;2023-04-03T13:39:56;2.23;;;0.93;;
21087;SDS011;10702;51.516;9.944;2023-04-03T13:42:26;2.80;;;1.03;;
21087;SDS011;10702;51.516;9.944;2023-04-03T13:45:09;2.60;;;1.00;;
21087;SDS011;10702;51.516;9.944;2023-04-03T13:47:38;2.27;;;0.80;;
21087;SDS011;10702;51.516;9.944;2023-04-03T13:50:13;3.90;;;1.10;;
21087;SDS011;10702;51.516;9.944;2023-04-03T13:52:41;3.23;;;1.17;;
21087;SDS011;10702;51.516;9.944;2023-04-03T13:55:17;3.13;;;1.03;;
21087;SDS011;10702;51.516;9.944;2023-04-03T13:57:54;3.57;;;1.17;;
21087;SDS011;10702;51.516;9.944;2023-04-03T14:00:35;2.73;;;0.90;;
21087;SDS011;10702;51.516;9.944;2023-04-03T14:03:11;3.13;;;1.10;;
21087;SDS011;10702;51.516;9.944;2023-04-03T14:05:39;2.97;;;1.00;;
21087;SDS011;10702;51.516;9.944;2023-04-03T14:08:06;2.67;;;1.00;;
21087;SDS011;10702;51.516;9.944;2023-04-03T14:10:36;1.87;;;1.10;;
21087;SDS011;10702;51.516;9.944;2023-04-03T14:13:05;2.20;;;0.87;;
21087;SDS011;10702;51.516;9.944;2023-04-03T14:15:32;5.13;;;1.27;;
21087;SDS011;10702;51.516;9.944;2023-04-03T14:17:59;3.83;;;1.40;;
21087;SDS011;10702;51.516;9.944;2023-04-03T14:20:30;2.00;;;0.90;;
21087;SDS011;10702;51.516;9.944;2023-04-03T14:22:58;2.77;;;1.07;;
21087;SDS011;10702;51.516;9.944;2023-04-03T14:25:25;2.70;;;1.10;;
21087;SDS011;10702;51.516;9.944;2023-04-03T14:27:53;2.47;;;1.00;;
21087;SDS011;10702;51.516;9.944;2023-04-03T14:30:24;4.23;;;1.13;;
21087;SDS011;10702;51.516;9.944;2023-04-03T14:32:52;2.83;;;1.00;;
21087;SDS011;10702;51.516;9.944;2023-04-03T14:35:20;3.60;;;1.10;;
21087;SDS011;10702;51.516;9.944;2023-04-03T14:37:48;2.97;;;0.97;;
21087;SDS011;10702;51.516;9.944;2023-04-03T14:40:17;5.07;;;1.10;;
21087;SDS011;10702;51.516;9.944;2023-04-03T14:42:45;3.10;;;1.00;;
21087;SDS011;10702;51.516;9.944;2023-04-03T14:45:14;3.57;;;1.20;;
21087;SDS011;10702;51.516;9.944;2023-04-03T14:47:44;4.90;;;1.30;;
21087;SDS011;10702;51.516;9.944;2023-04-03T14:50:14;3.07;;;0.97;;
21087;SDS011;10702;51.516;9.944;2023-04-03T14:52:43;3.23;;;1.03;;
21087;SDS011;10702;51.516;9.944;2023-04-03T14:55:12;2.53;;;1.20;;
21087;SDS011;10702;51.516;9.944;2023-04-03T14:57:39;2.77;;;1.07;;
21087;SDS011;10702;51.516;9.944;2023-04-03T15:00:07;3.10;;;1.03;;
21087;SDS011;10702;51.516;9.944;2023-04-03T15:02:39;3.30;;;1.00;;
21087;SDS011;10702;51.516;9.944;2023-04-03T15:05:09;1.80;;;0.93;;
21087;SDS011;10702;51.516;9.944;2023-04-03T15:07:38;3.93;;;1.30;;
21087;SDS011;10702;51.516;9.944;2023-04-03T15:10:16;4.20;;;1.20;;
21087;SDS011;10702;51.516;9.944;2023-04-03T15:12:45;2.37;;;1.00;;
21087;SDS011;10702;51.516;9.944;2023-04-03T15:15:13;2.40;;;0.97;;
21087;SDS011;10702;51.516;9.944;2023-04-03T15:17:40;4.73;;;1.20;;